createdAt,value
2023-03-25T00:01:19.224Z,12.85
2023-03-25T00:02:41.256Z,12.71
2023-03-25T00:04:04.424Z,12.81
2023-03-25T00:05:28.496Z,12.81
2023-03-25T00:06:50.922Z,12.70
2023-03-25T00:08:15.829Z,12.71
2023-03-25T00:09:38.038Z,12.76
2023-03-25T00:11:04.266Z,12.78
2023-03-25T00:12:40.314Z,12.74
2023-03-25T00:14:04.718Z,12.60
2023-03-25T00:15:27.170Z,12.75
2023-03-25T00:16:53.225Z,12.74
2023-03-25T00:18:17.664Z,12.72
2023-03-25T00:19:46.780Z,12.74
2023-03-25T00:21:11.897Z,12.75
2023-03-25T00:22:40.823Z,12.74
2023-03-25T00:24:04.498Z,12.74
2023-03-25T00:25:25.552Z,12.66
2023-03-25T00:26:49.080Z,12.75
2023-03-25T00:28:11.397Z,12.72
2023-03-25T00:29:32.600Z,12.73
2023-03-25T00:30:55.234Z,12.70
2023-03-25T00:32:21.224Z,12.75
2023-03-25T00:33:43.787Z,12.75
2023-03-25T00:35:08.738Z,12.69
2023-03-25T00:36:32.573Z,12.74
2023-03-25T00:37:57.968Z,12.69
2023-03-25T00:39:21.436Z,12.68
2023-03-25T00:40:43.246Z,12.62
2023-03-25T00:42:26.367Z,12.64
2023-03-25T00:43:51.682Z,12.68
2023-03-25T00:45:19.017Z,12.64
2023-03-25T00:46:46.701Z,12.68
2023-03-25T00:48:11.530Z,12.49
2023-03-25T00:49:44.932Z,12.67
2023-03-25T00:51:52.502Z,12.59
2023-03-25T00:53:17.224Z,12.61
2023-03-25T00:54:42.816Z,12.62
2023-03-25T00:56:14.698Z,12.49
2023-03-25T00:57:39.262Z,12.49
2023-03-25T00:59:00.507Z,12.62
2023-03-25T01:00:22.952Z,12.58
2023-03-25T01:01:46.334Z,12.61
2023-03-25T01:03:09.882Z,12.60
2023-03-25T01:04:32.176Z,12.33
2023-03-25T01:05:55.335Z,12.44
2023-03-25T01:07:17.892Z,12.50
2023-03-25T01:08:41.827Z,12.58
2023-03-25T01:10:31.595Z,12.54
2023-03-25T01:11:54.962Z,12.56
2023-03-25T01:13:23.739Z,12.54
2023-03-25T01:14:46.486Z,12.47
2023-03-25T01:16:09.984Z,12.54
2023-03-25T01:17:34.783Z,12.47
2023-03-25T01:19:01.965Z,12.49
2023-03-25T01:20:23.301Z,12.51
2023-03-25T01:21:46.065Z,12.49
2023-03-25T01:23:16.255Z,12.51
2023-03-25T01:24:48.366Z,12.50
2023-03-25T01:26:09.579Z,12.48
2023-03-25T01:27:36.498Z,12.40
2023-03-25T01:29:05.212Z,12.22
2023-03-25T01:30:27.728Z,12.47
2023-03-25T01:31:50.931Z,12.28
2023-03-25T01:33:13.306Z,12.41
2023-03-25T01:34:41.542Z,12.44
2023-03-25T01:36:04.482Z,12.41
2023-03-25T01:37:27.487Z,12.43
2023-03-25T01:38:50.735Z,12.43
2023-03-25T01:40:20.122Z,12.39
2023-03-25T01:41:48.979Z,12.42
2023-03-25T01:43:15.469Z,12.38
2023-03-25T01:45:17.909Z,12.39
2023-03-25T01:46:45.147Z,12.37
2023-03-25T01:48:11.610Z,12.38
2023-03-25T01:49:39.442Z,12.35
2023-03-25T01:51:06.517Z,12.32
2023-03-25T01:52:29.951Z,12.33
2023-03-25T01:53:54.584Z,12.20
2023-03-25T01:55:21.588Z,12.35
2023-03-25T01:56:49.189Z,12.29
2023-03-25T01:58:15.416Z,12.29
2023-03-25T01:59:40.266Z,12.34
2023-03-25T02:01:03.482Z,12.34
2023-03-25T02:02:36.857Z,12.32
2023-03-25T02:04:03.568Z,12.26
2023-03-25T02:05:31.086Z,12.27
2023-03-25T02:06:55.015Z,12.28
2023-03-25T02:08:17.573Z,12.27
2023-03-25T02:09:39.905Z,12.27
2023-03-25T02:11:04.010Z,12.24
2023-03-25T02:12:25.435Z,12.24
2023-03-25T02:13:47.838Z,12.24
2023-03-25T02:15:10.921Z,12.15
2023-03-25T02:16:42.672Z,12.24
2023-03-25T02:18:22.458Z,12.00
2023-03-25T02:20:33.401Z,12.16
2023-03-25T02:22:28.500Z,12.19
2023-03-25T02:24:25.928Z,12.19
2023-03-25T02:26:19.143Z,12.11
2023-03-25T02:28:03.397Z,11.87
2023-03-25T02:29:38.029Z,12.16
2023-03-25T02:31:22.764Z,12.13
2023-03-25T02:33:17.745Z,11.97
2023-03-25T02:37:18.441Z,12.09
2023-03-25T02:38:48.002Z,12.11
2023-03-25T02:40:16.259Z,12.09
2023-03-25T02:41:58.536Z,12.05
2023-03-25T02:43:24.187Z,12.05
2023-03-25T02:45:25.306Z,12.09
2023-03-25T02:46:57.449Z,11.83
2023-03-25T02:48:21.809Z,11.98
2023-03-25T02:49:54.190Z,12.08
2023-03-25T02:51:24.537Z,12.00
2023-03-25T02:52:50.083Z,12.05
2023-03-25T02:54:17.225Z,12.03
2023-03-25T02:55:43.421Z,12.04
2023-03-25T02:57:08.393Z,12.06
2023-03-25T02:58:31.079Z,11.99
2023-03-25T02:59:56.496Z,11.99
2023-03-25T03:01:25.509Z,12.02
2023-03-25T03:02:59.959Z,12.00
2023-03-25T03:04:23.670Z,12.03
2023-03-25T03:05:49.766Z,12.03
2023-03-25T03:07:24.602Z,11.98
2023-03-25T03:09:01.558Z,12.01
2023-03-25T03:10:31.787Z,12.00
2023-03-25T03:12:06.043Z,12.00
2023-03-25T03:13:56.490Z,12.00
2023-03-25T03:15:29.930Z,11.98
2023-03-25T03:17:03.748Z,11.98
2023-03-25T03:18:34.442Z,11.95
2023-03-25T03:20:00.842Z,11.97
2023-03-25T03:21:30.248Z,11.94
2023-03-25T03:23:02.251Z,11.96
2023-03-25T03:24:32.214Z,11.93
2023-03-25T03:26:00.385Z,11.95
2023-03-25T03:27:33.965Z,11.94
2023-03-25T03:29:06.574Z,11.88
2023-03-25T03:30:32.896Z,11.94
2023-03-25T03:32:06.998Z,11.94
2023-03-25T03:33:34.560Z,11.93
2023-03-25T03:35:02.053Z,11.89
2023-03-25T03:36:30.244Z,11.91
2023-03-25T03:37:58.934Z,11.87
2023-03-25T03:39:25.089Z,11.88
2023-03-25T03:40:51.743Z,11.90
2023-03-25T03:42:21.593Z,11.89
2023-03-25T03:43:50.332Z,11.88
2023-03-25T03:45:18.984Z,11.77
2023-03-25T03:46:47.203Z,11.80
2023-03-25T03:48:14.111Z,11.82
2023-03-25T03:49:38.885Z,11.79
2023-03-25T03:51:08.029Z,11.77
2023-03-25T03:52:34.827Z,11.77
2023-03-25T03:54:00.736Z,11.77
2023-03-25T03:55:30.013Z,11.74
2023-03-25T03:56:57.362Z,11.75
2023-03-25T03:58:26.193Z,11.73
2023-03-25T03:59:54.982Z,11.72
2023-03-25T04:01:28.179Z,11.69
2023-03-25T04:02:51.659Z,11.69
2023-03-25T04:04:18.255Z,11.68
2023-03-25T04:05:41.065Z,11.67
2023-03-25T04:07:07.184Z,11.68
2023-03-25T04:08:35.814Z,11.66
2023-03-25T04:10:04.339Z,11.61
2023-03-25T04:11:31.794Z,11.61
2023-03-25T04:12:56.972Z,11.60
2023-03-25T04:14:20.047Z,11.60
2023-03-25T04:15:42.788Z,11.57
2023-03-25T04:17:06.081Z,11.59
2023-03-25T04:18:28.785Z,11.55
2023-03-25T04:19:53.636Z,11.54
2023-03-25T04:21:17.815Z,11.59
2023-03-25T04:22:38.931Z,11.36
2023-03-25T04:24:01.832Z,11.59
2023-03-25T04:25:25.372Z,11.49
2023-03-25T04:26:50.007Z,11.56
2023-03-25T04:28:13.858Z,11.55
2023-03-25T04:29:37.274Z,11.55
2023-03-25T04:31:00.647Z,11.50
2023-03-25T04:32:22.812Z,11.54
2023-03-25T04:33:46.910Z,11.50
2023-03-25T04:35:09.704Z,11.46
2023-03-25T04:36:33.838Z,11.51
2023-03-25T04:37:57.628Z,11.45
2023-03-25T04:39:22.776Z,11.46
2023-03-25T04:40:46.901Z,11.45
2023-03-25T04:42:09.090Z,11.43
2023-03-25T04:43:30.351Z,11.41
2023-03-25T04:44:54.446Z,11.36
2023-03-25T04:46:18.346Z,11.40
2023-03-25T04:47:45.157Z,11.38
2023-03-25T04:49:14.212Z,11.38
2023-03-25T04:50:35.275Z,11.34
2023-03-25T04:51:58.216Z,11.32
2023-03-25T04:53:19.837Z,11.32
2023-03-25T04:54:42.278Z,11.32
2023-03-25T04:56:05.219Z,11.32
2023-03-25T04:57:27.444Z,11.28
2023-03-25T04:58:48.772Z,11.31
2023-03-25T05:00:15.168Z,11.30
2023-03-25T05:01:42.309Z,11.30
2023-03-25T05:03:05.003Z,11.29
2023-03-25T05:04:27.106Z,11.32
2023-03-25T05:05:48.580Z,11.19
2023-03-25T05:07:11.065Z,11.32
2023-03-25T05:08:32.016Z,11.33
2023-03-25T05:09:54.365Z,11.37
2023-03-25T05:11:14.980Z,11.35
2023-03-25T05:12:37.038Z,11.34
2023-03-25T05:13:58.814Z,11.35
2023-03-25T05:15:21.382Z,11.39
2023-03-25T05:16:44.148Z,11.38
2023-03-25T05:18:06.933Z,11.34
2023-03-25T05:19:28.902Z,11.34
2023-03-25T05:20:51.565Z,11.36
2023-03-25T05:22:13.325Z,11.39
2023-03-25T05:23:35.381Z,11.32
2023-03-25T05:24:56.534Z,11.36
2023-03-25T05:26:18.394Z,11.33
2023-03-25T05:27:39.987Z,11.37
2023-03-25T05:29:03.265Z,11.38
2023-03-25T05:30:32.707Z,11.40
2023-03-25T05:31:55.667Z,11.35
2023-03-25T05:33:19.090Z,11.34
2023-03-25T05:34:41.053Z,11.42
2023-03-25T05:36:02.420Z,11.40
2023-03-25T05:37:24.358Z,11.43
2023-03-25T05:38:46.429Z,11.44
2023-03-25T05:40:14.975Z,11.45
2023-03-25T05:41:40.052Z,11.50
2023-03-25T05:43:05.698Z,11.50
2023-03-25T05:44:27.735Z,11.46
2023-03-25T05:45:50.956Z,11.49
2023-03-25T05:47:13.453Z,11.47
2023-03-25T05:48:35.858Z,11.52
2023-03-25T05:49:58.736Z,11.55
2023-03-25T05:51:22.119Z,11.59
2023-03-25T05:52:45.710Z,11.62
2023-03-25T05:54:12.031Z,11.67
2023-03-25T05:55:34.518Z,11.70
2023-03-25T05:57:01.301Z,11.71
2023-03-25T05:58:22.462Z,11.82
2023-03-25T05:59:44.686Z,11.77
2023-03-25T06:01:14.593Z,11.93
2023-03-25T06:02:49.031Z,11.99
2023-03-25T06:04:13.092Z,12.02
2023-03-25T06:05:41.518Z,12.13
2023-03-25T06:07:03.950Z,12.20
2023-03-25T06:08:27.160Z,12.28
2023-03-25T06:09:54.471Z,12.34
2023-03-25T06:11:15.999Z,12.37
2023-03-25T06:12:39.278Z,12.40
2023-03-25T06:14:02.940Z,12.47
2023-03-25T06:15:29.557Z,12.74
2023-03-25T06:16:56.786Z,12.99
2023-03-25T06:18:22.700Z,13.17
2023-03-25T06:19:44.255Z,13.32
2023-03-25T06:21:07.169Z,13.62
2023-03-25T06:22:28.321Z,13.91
2023-03-25T06:23:51.098Z,14.08
2023-03-25T06:25:17.782Z,14.30
2023-03-25T06:26:39.964Z,14.56
2023-03-25T06:28:03.815Z,14.89
2023-03-25T06:29:26.514Z,15.24
2023-03-25T06:30:49.492Z,15.53
2023-03-25T06:32:14.944Z,15.69
2023-03-25T06:33:42.910Z,15.73
2023-03-25T06:35:07.328Z,15.78
2023-03-25T06:36:29.748Z,15.96
2023-03-25T06:37:51.969Z,16.03
2023-03-25T06:39:25.900Z,16.05
2023-03-25T06:40:50.903Z,16.10
2023-03-25T06:42:13.217Z,16.24
2023-03-25T06:43:56.726Z,16.27
2023-03-25T06:45:54.941Z,16.18
2023-03-25T06:47:32.675Z,15.86
2023-03-25T06:48:53.860Z,15.86
2023-03-25T06:50:16.262Z,15.82
2023-03-25T06:51:38.155Z,15.69
2023-03-25T06:53:01.026Z,15.58
2023-03-25T06:54:23.907Z,15.52
2023-03-25T06:55:45.134Z,15.31
2023-03-25T06:57:08.322Z,15.39
2023-03-25T06:58:35.315Z,15.30
2023-03-25T06:59:57.871Z,15.28
2023-03-25T07:01:19.914Z,15.25
2023-03-25T07:02:43.776Z,15.21
2023-03-25T07:04:06.168Z,15.08
2023-03-25T07:05:27.395Z,15.10
2023-03-25T07:06:49.716Z,15.01
2023-03-25T07:08:11.782Z,14.93
2023-03-25T07:09:33.911Z,14.92
2023-03-25T07:11:02.379Z,14.84
2023-03-25T07:12:25.026Z,14.86
2023-03-25T07:13:46.195Z,14.83
2023-03-25T07:15:09.843Z,14.81
2023-03-25T07:16:35.568Z,14.81
2023-03-25T07:18:02.124Z,14.79
2023-03-25T07:19:24.183Z,14.86
2023-03-25T07:20:46.021Z,14.79
2023-03-25T07:22:08.428Z,14.75
2023-03-25T07:23:29.859Z,14.73
2023-03-25T07:24:52.609Z,14.69
2023-03-25T07:26:14.743Z,14.61
2023-03-25T07:27:37.005Z,14.63
2023-03-25T07:29:04.766Z,14.60
2023-03-25T07:30:27.025Z,14.58
2023-03-25T07:31:49.338Z,14.58
2023-03-25T07:33:12.036Z,14.56
2023-03-25T07:34:34.047Z,14.59
2023-03-25T07:35:55.421Z,14.54
2023-03-25T07:37:17.728Z,14.56
2023-03-25T07:38:40.326Z,14.59
2023-03-25T07:40:02.661Z,14.59
2023-03-25T07:41:23.838Z,14.61
2023-03-25T07:43:06.835Z,14.63
2023-03-25T07:44:36.285Z,14.64
2023-03-25T07:45:58.848Z,14.74
2023-03-25T07:47:24.966Z,14.84
2023-03-25T07:48:48.761Z,14.87
2023-03-25T07:50:10.529Z,14.93
2023-03-25T07:51:33.361Z,15.01
2023-03-25T07:52:56.050Z,15.06
2023-03-25T07:54:18.286Z,15.16
2023-03-25T07:55:41.336Z,15.13
2023-03-25T07:57:02.777Z,15.32
2023-03-25T07:58:25.210Z,15.36
2023-03-25T07:59:47.727Z,15.43
2023-03-25T08:01:09.902Z,15.61
2023-03-25T08:02:30.975Z,15.91
2023-03-25T08:03:55.020Z,16.21
2023-03-25T08:05:21.383Z,16.39
2023-03-25T08:06:42.827Z,16.47
2023-03-25T08:08:06.941Z,16.49
2023-03-25T08:09:29.933Z,16.44
2023-03-25T08:10:51.805Z,16.46
2023-03-25T08:12:13.881Z,16.42
2023-03-25T08:13:36.119Z,16.43
2023-03-25T08:14:58.246Z,16.45
2023-03-25T08:16:19.331Z,16.60
2023-03-25T08:17:42.026Z,16.80
2023-03-25T08:19:04.882Z,17.15
2023-03-25T08:20:29.977Z,17.81
2023-03-25T08:21:52.524Z,18.86
2023-03-25T08:23:19.955Z,19.28
2023-03-25T08:24:42.122Z,19.61
2023-03-25T08:26:05.637Z,19.89
2023-03-25T08:27:27.636Z,19.93
2023-03-25T08:28:49.596Z,19.95
2023-03-25T08:30:13.350Z,19.90
2023-03-25T08:31:38.945Z,19.82
2023-03-25T08:33:07.452Z,19.71
2023-03-25T08:34:39.785Z,19.57
2023-03-25T08:36:03.401Z,19.51
2023-03-25T08:37:26.100Z,19.49
2023-03-25T08:38:48.235Z,19.50
2023-03-25T08:40:10.979Z,19.47
2023-03-25T08:41:32.166Z,19.42
2023-03-25T08:42:54.271Z,19.28
2023-03-25T08:44:16.609Z,19.16
2023-03-25T08:45:38.569Z,19.04
2023-03-25T08:47:01.623Z,18.91
2023-03-25T08:48:24.934Z,18.71
2023-03-25T08:49:49.553Z,18.54
2023-03-25T08:51:11.784Z,18.29
2023-03-25T08:52:36.918Z,18.18
2023-03-25T08:53:59.161Z,17.94
2023-03-25T08:55:26.180Z,17.85
2023-03-25T08:56:48.625Z,17.51
2023-03-25T08:58:10.880Z,17.59
2023-03-25T08:59:31.992Z,17.45
2023-03-25T09:00:56.334Z,17.23
2023-03-25T09:02:18.914Z,17.15
2023-03-25T09:03:41.155Z,17.06
2023-03-25T09:05:04.626Z,17.02
2023-03-25T09:06:27.130Z,16.93
2023-03-25T09:07:49.381Z,16.82
2023-03-25T09:09:12.430Z,16.73
2023-03-25T09:10:36.684Z,16.71
2023-03-25T09:12:00.867Z,16.72
2023-03-25T09:13:22.885Z,16.68
2023-03-25T09:14:50.069Z,16.60
2023-03-25T09:16:12.167Z,16.48
2023-03-25T09:17:34.264Z,16.48
2023-03-25T09:18:56.684Z,16.47
2023-03-25T09:20:23.363Z,16.33
2023-03-25T09:21:45.632Z,16.32
2023-03-25T09:23:09.792Z,16.24
2023-03-25T09:24:34.274Z,16.25
2023-03-25T09:26:01.164Z,16.32
2023-03-25T09:27:23.342Z,16.64
2023-03-25T09:28:46.145Z,16.95
2023-03-25T09:30:09.912Z,17.29
2023-03-25T09:31:33.594Z,17.73
2023-03-25T09:32:55.965Z,17.84
2023-03-25T09:34:18.656Z,17.88
2023-03-25T09:35:43.158Z,18.01
2023-03-25T09:37:05.833Z,18.25
2023-03-25T09:38:27.985Z,18.37
2023-03-25T09:39:50.650Z,18.50
2023-03-25T09:41:42.375Z,18.78
2023-03-25T09:43:15.844Z,18.69
2023-03-25T09:44:53.585Z,18.86
2023-03-25T09:46:16.301Z,18.88
2023-03-25T09:47:44.011Z,18.90
2023-03-25T09:49:13.442Z,18.78
2023-03-25T09:50:37.412Z,18.62
2023-03-25T09:52:04.327Z,18.54
2023-03-25T09:53:32.805Z,18.25
2023-03-25T09:55:00.557Z,18.10
2023-03-25T09:56:25.970Z,18.02
2023-03-25T09:57:51.815Z,18.14
2023-03-25T09:59:18.944Z,17.99
2023-03-25T10:00:48.426Z,18.00
2023-03-25T10:02:33.711Z,17.79
2023-03-25T10:04:34.493Z,17.85
2023-03-25T10:06:12.585Z,17.81
2023-03-25T10:07:54.798Z,17.88
2023-03-25T10:09:42.788Z,18.01
2023-03-25T10:11:09.604Z,18.11
2023-03-25T10:12:43.787Z,18.26
2023-03-25T10:14:15.551Z,18.44
2023-03-25T10:15:52.123Z,18.30
2023-03-25T10:17:27.491Z,18.30
2023-03-25T10:18:59.844Z,18.14
2023-03-25T10:20:35.480Z,18.28
2023-03-25T10:22:04.462Z,18.16
2023-03-25T10:23:34.773Z,17.85
2023-03-25T10:25:02.226Z,17.79
2023-03-25T10:26:30.998Z,17.93
2023-03-25T10:27:54.510Z,18.13
2023-03-25T10:29:23.444Z,19.81
2023-03-25T10:30:53.319Z,22.91
2023-03-25T10:32:19.950Z,23.99
2023-03-25T10:33:51.615Z,23.95
2023-03-25T10:35:23.285Z,23.81
2023-03-25T10:36:55.312Z,23.03
2023-03-25T10:38:21.047Z,22.52
2023-03-25T10:39:47.484Z,22.09
2023-03-25T10:41:21.321Z,21.88
2023-03-25T10:43:00.418Z,22.52
2023-03-25T10:44:25.519Z,22.26
2023-03-25T10:45:50.384Z,22.31
2023-03-25T10:47:17.731Z,22.46
2023-03-25T10:48:40.342Z,22.46
2023-03-25T10:50:04.696Z,22.31
2023-03-25T10:51:30.592Z,21.96
2023-03-25T10:52:57.757Z,21.88
2023-03-25T10:54:20.599Z,21.88
2023-03-25T10:55:48.237Z,21.91
2023-03-25T10:57:13.339Z,22.23
2023-03-25T10:58:41.520Z,22.14
2023-03-25T11:00:14.829Z,22.06
2023-03-25T11:01:40.044Z,21.79
2023-03-25T11:03:05.452Z,21.55
2023-03-25T11:04:34.996Z,21.39
2023-03-25T11:06:00.311Z,21.25
2023-03-25T11:07:27.178Z,21.08
2023-03-25T11:09:13.768Z,20.75
2023-03-25T11:10:35.920Z,20.52
2023-03-25T11:12:01.631Z,20.32
2023-03-25T11:13:25.979Z,20.09
2023-03-25T11:14:56.779Z,19.83
2023-03-25T11:16:19.454Z,19.62
2023-03-25T11:17:42.075Z,19.53
2023-03-25T11:19:05.137Z,19.32
2023-03-25T11:20:31.904Z,19.17
2023-03-25T11:21:57.255Z,19.09
2023-03-25T11:23:27.325Z,19.07
2023-03-25T11:24:54.767Z,19.18
2023-03-25T11:26:22.281Z,19.26
2023-03-25T11:27:51.341Z,19.32
2023-03-25T11:29:16.120Z,19.42
2023-03-25T11:30:39.143Z,19.54
2023-03-25T11:32:08.830Z,19.67
2023-03-25T11:33:29.972Z,19.77
2023-03-25T11:34:54.704Z,19.85
2023-03-25T11:36:27.160Z,19.93
2023-03-25T11:37:57.428Z,20.11
2023-03-25T11:39:28.324Z,20.31
2023-03-25T11:40:54.945Z,20.38
2023-03-25T11:42:32.725Z,20.35
2023-03-25T11:43:57.177Z,20.58
2023-03-25T11:45:25.041Z,20.56
2023-03-25T11:46:50.363Z,20.56
2023-03-25T11:48:17.603Z,20.70
2023-03-25T11:49:42.039Z,20.68
2023-03-25T11:51:06.070Z,20.62
2023-03-25T11:52:29.764Z,20.76
2023-03-25T11:54:00.194Z,20.77
2023-03-25T11:55:26.272Z,20.89
2023-03-25T11:56:51.512Z,20.88
2023-03-25T11:58:18.582Z,20.57
2023-03-25T11:59:46.228Z,20.69
2023-03-25T12:01:21.574Z,20.60
2023-03-25T12:02:43.589Z,20.40
2023-03-25T12:06:27.076Z,19.98
2023-03-25T12:08:15.229Z,19.90
2023-03-25T12:09:38.380Z,19.85
2023-03-25T12:11:07.133Z,19.91
2023-03-25T12:12:40.234Z,19.78
2023-03-25T12:14:26.635Z,19.73
2023-03-25T12:15:56.522Z,19.69
2023-03-25T12:17:29.451Z,19.60
2023-03-25T12:19:04.508Z,19.36
2023-03-25T12:20:34.209Z,19.23
2023-03-25T12:22:08.660Z,19.07
2023-03-25T12:23:44.923Z,18.74
2023-03-25T12:25:27.676Z,18.72
2023-03-25T12:26:57.925Z,18.39
2023-03-25T12:28:35.674Z,18.25
2023-03-25T12:30:06.296Z,18.06
2023-03-25T12:31:40.958Z,17.83
2023-03-25T12:33:14.036Z,17.42
2023-03-25T12:34:47.491Z,17.38
2023-03-25T12:36:23.955Z,17.17
2023-03-25T12:38:02.018Z,16.97
2023-03-25T12:39:43.137Z,16.76
2023-03-25T12:41:31.757Z,16.44
2023-03-25T12:43:04.657Z,16.57
2023-03-25T12:44:43.927Z,16.45
2023-03-25T12:46:20.498Z,16.48
2023-03-25T12:47:50.708Z,16.50
2023-03-25T12:49:30.901Z,16.46
2023-03-25T12:51:01.935Z,16.52
2023-03-25T12:52:32.288Z,16.56
2023-03-25T12:54:06.559Z,16.52
2023-03-25T12:55:45.507Z,16.51
2023-03-25T12:57:16.828Z,16.65
2023-03-25T12:59:00.074Z,16.73
2023-03-25T13:00:34.411Z,16.89
2023-03-25T13:02:20.138Z,16.96
2023-03-25T13:04:10.090Z,17.04
2023-03-25T13:05:48.385Z,17.09
2023-03-25T13:07:14.468Z,16.98
2023-03-25T13:08:43.880Z,17.15
2023-03-25T13:10:15.015Z,16.89
2023-03-25T13:11:53.313Z,17.21
2023-03-25T13:13:20.737Z,17.28
2023-03-25T13:14:49.969Z,17.23
2023-03-25T13:16:15.397Z,17.14
2023-03-25T13:17:58.584Z,17.10
2023-03-25T13:19:44.493Z,16.89
2023-03-25T13:21:14.149Z,17.00
2023-03-25T13:22:41.072Z,17.02
2023-03-25T13:24:08.266Z,16.98
2023-03-25T13:25:36.897Z,16.89
2023-03-25T13:27:01.102Z,16.67
2023-03-25T13:28:29.095Z,16.62
2023-03-25T13:29:55.095Z,16.47
2023-03-25T13:31:24.237Z,16.47
2023-03-25T13:32:50.606Z,16.45
2023-03-25T13:34:28.056Z,16.35
2023-03-25T13:35:59.281Z,16.48
2023-03-25T13:37:29.486Z,16.49
2023-03-25T13:38:55.575Z,16.47
2023-03-25T13:40:36.862Z,16.11
2023-03-25T13:42:06.404Z,16.09
2023-03-25T13:43:40.144Z,16.06
2023-03-25T13:45:06.267Z,15.81
2023-03-25T13:46:35.062Z,15.87
2023-03-25T13:48:08.001Z,15.50
2023-03-25T13:49:37.251Z,15.53
2023-03-25T13:51:06.555Z,15.33
2023-03-25T13:52:35.053Z,15.30
2023-03-25T13:54:02.871Z,15.21
2023-03-25T13:55:35.365Z,15.15
2023-03-25T13:57:26.675Z,15.09
2023-03-25T13:59:07.240Z,15.14
2023-03-25T14:00:49.093Z,15.06
2023-03-25T14:02:49.292Z,15.20
2023-03-25T14:04:33.366Z,15.35
2023-03-25T14:06:19.612Z,15.42
2023-03-25T14:08:08.639Z,15.49
2023-03-25T14:10:18.995Z,15.54
2023-03-25T14:11:58.386Z,15.66
2023-03-25T14:13:26.814Z,15.74
2023-03-25T14:14:57.175Z,15.80
2023-03-25T14:16:25.882Z,16.03
2023-03-25T14:17:50.539Z,16.13
2023-03-25T14:19:16.974Z,16.02
2023-03-25T14:20:41.708Z,16.17
2023-03-25T14:22:11.747Z,16.22
2023-03-25T14:23:38.418Z,16.19
2023-03-25T14:25:02.301Z,16.14
2023-03-25T14:26:24.831Z,16.13
2023-03-25T14:27:50.713Z,16.09
2023-03-25T14:29:26.450Z,16.05
2023-03-25T14:31:11.152Z,15.95
2023-03-25T14:32:36.076Z,15.85
2023-03-25T14:34:15.074Z,15.47
2023-03-25T14:35:58.062Z,15.42
2023-03-25T14:37:29.570Z,15.35
2023-03-25T14:38:54.607Z,15.29
2023-03-25T14:41:01.494Z,15.26
2023-03-25T14:42:30.743Z,15.20
2023-03-25T14:44:14.700Z,14.87
2023-03-25T14:46:01.647Z,14.88
2023-03-25T14:47:36.651Z,14.69
2023-03-25T14:49:21.263Z,14.85
2023-03-25T14:50:44.054Z,14.82
2023-03-25T14:52:07.573Z,14.77
2023-03-25T14:53:30.060Z,14.62
2023-03-25T14:54:57.061Z,14.54
2023-03-25T14:56:23.417Z,14.73
2023-03-25T14:57:46.527Z,14.74
2023-03-25T14:59:17.815Z,14.47
2023-03-25T15:00:47.314Z,14.70
2023-03-25T15:02:18.093Z,14.80
2023-03-25T15:03:46.225Z,14.55
2023-03-25T15:05:20.293Z,14.77
2023-03-25T15:06:52.121Z,14.43
2023-03-25T15:08:17.962Z,14.41
2023-03-25T15:09:49.049Z,14.55
2023-03-25T15:11:17.207Z,14.29
2023-03-25T15:12:40.335Z,14.42
2023-03-25T15:14:06.995Z,14.17
2023-03-25T15:15:33.957Z,14.16
2023-03-25T15:17:05.177Z,14.16
2023-03-25T15:18:59.919Z,14.12
2023-03-25T15:20:37.538Z,13.96
2023-03-25T15:22:21.109Z,13.69
2023-03-25T15:23:46.493Z,13.56
2023-03-25T15:25:17.181Z,13.43
2023-03-25T15:26:43.375Z,13.62
2023-03-25T15:28:18.901Z,13.54
2023-03-25T15:29:52.416Z,13.44
2023-03-25T15:31:38.492Z,13.39
2023-03-25T15:33:19.338Z,13.31
2023-03-25T15:35:01.051Z,13.23
2023-03-25T15:36:55.519Z,13.10
2023-03-25T15:38:40.239Z,13.17
2023-03-25T15:40:16.733Z,13.17
2023-03-25T15:42:08.408Z,13.22
2023-03-25T15:44:02.165Z,13.21
2023-03-25T15:45:34.429Z,13.31
2023-03-25T15:47:07.443Z,13.43
2023-03-25T15:48:57.121Z,13.83
2023-03-25T15:50:37.434Z,13.84
2023-03-25T15:52:19.734Z,13.90
2023-03-25T15:54:20.576Z,13.91
2023-03-25T15:55:48.170Z,13.67
2023-03-25T15:57:22.824Z,13.92
2023-03-25T15:58:55.331Z,13.81
2023-03-25T16:00:24.356Z,13.81
2023-03-25T16:01:53.128Z,13.48
2023-03-25T16:03:18.614Z,13.66
2023-03-25T16:04:44.384Z,13.60
2023-03-25T16:06:16.705Z,13.64
2023-03-25T16:07:39.094Z,13.40
2023-03-25T16:09:03.289Z,13.47
2023-03-25T16:10:32.547Z,13.29
2023-03-25T16:12:01.293Z,13.29
2023-03-25T16:13:25.235Z,13.28
2023-03-25T16:14:48.798Z,13.20
2023-03-25T16:16:12.881Z,13.15
2023-03-25T16:17:36.338Z,13.08
2023-03-25T16:18:57.568Z,12.97
2023-03-25T16:20:24.663Z,12.90
2023-03-25T16:21:50.745Z,12.91
2023-03-25T16:23:20.719Z,12.81
2023-03-25T16:24:43.429Z,12.64
2023-03-25T16:26:06.808Z,12.70
2023-03-25T16:27:32.645Z,12.65
2023-03-25T16:28:56.610Z,12.59
2023-03-25T16:30:25.201Z,12.57
2023-03-25T16:31:56.683Z,12.49
2023-03-25T16:33:23.174Z,12.18
2023-03-25T16:34:44.472Z,12.26
2023-03-25T16:36:10.663Z,12.33
2023-03-25T16:37:34.283Z,12.27
2023-03-25T16:38:56.867Z,12.23
2023-03-25T16:40:26.725Z,12.21
2023-03-25T16:41:51.349Z,12.01
2023-03-25T16:43:18.705Z,12.11
2023-03-25T16:44:42.762Z,12.07
2023-03-25T16:46:07.110Z,12.05
2023-03-25T16:47:33.517Z,12.01
2023-03-25T16:48:57.501Z,11.99
2023-03-25T16:50:21.644Z,11.71
2023-03-25T16:51:45.236Z,11.91
2023-03-25T16:53:08.083Z,11.89
2023-03-25T16:54:34.976Z,11.86
2023-03-25T16:56:03.020Z,11.83
2023-03-25T16:57:27.629Z,11.80
2023-03-25T16:58:58.219Z,11.76
2023-03-25T17:00:25.741Z,11.74
2023-03-25T17:01:54.170Z,11.67
2023-03-25T17:03:20.220Z,11.63
2023-03-25T17:04:43.546Z,11.66
2023-03-25T17:06:12.920Z,11.64
2023-03-25T17:07:35.319Z,11.49
2023-03-25T17:08:59.295Z,11.59
2023-03-25T17:10:24.534Z,11.55
2023-03-25T17:11:48.669Z,11.53
2023-03-25T17:13:12.244Z,11.53
2023-03-25T17:14:38.225Z,11.37
2023-03-25T17:16:02.421Z,11.50
2023-03-25T17:18:03.674Z,11.39
2023-03-25T17:19:28.947Z,11.37
2023-03-25T17:20:52.084Z,11.45
2023-03-25T17:22:18.117Z,11.44
2023-03-25T17:23:46.478Z,11.43
2023-03-25T17:25:26.478Z,11.45
2023-03-25T17:26:57.581Z,11.47
2023-03-25T17:28:28.948Z,11.47
2023-03-25T17:29:52.467Z,11.41
2023-03-25T17:31:29.808Z,11.47
2023-03-25T17:32:51.891Z,11.47
2023-03-25T17:34:16.053Z,11.36
2023-03-25T17:35:39.496Z,11.41
2023-03-25T17:37:04.101Z,11.42
2023-03-25T17:38:27.880Z,11.38
2023-03-25T17:39:50.363Z,11.39
2023-03-25T17:41:14.315Z,11.36
2023-03-25T17:42:38.145Z,11.34
2023-03-25T17:44:01.654Z,11.28
2023-03-25T17:45:25.984Z,11.25
2023-03-25T17:46:55.490Z,11.20
2023-03-25T17:48:18.857Z,11.29
2023-03-25T17:49:40.511Z,11.28
2023-03-25T17:51:04.366Z,11.17
2023-03-25T17:52:30.716Z,11.26
2023-03-25T17:54:04.769Z,11.20
2023-03-25T17:55:26.386Z,11.10
2023-03-25T17:56:50.492Z,10.93
2023-03-25T17:58:14.450Z,11.22
2023-03-25T17:59:37.123Z,11.14
2023-03-25T18:01:01.535Z,11.13
2023-03-25T18:02:25.616Z,10.90
2023-03-25T18:03:47.984Z,10.93
2023-03-25T18:05:12.430Z,11.05
2023-03-25T18:06:34.758Z,10.91
2023-03-25T18:07:58.728Z,11.08
2023-03-25T18:09:29.129Z,10.96
2023-03-25T18:11:01.305Z,11.09
2023-03-25T18:12:28.867Z,10.96
2023-03-25T18:13:58.633Z,10.79
2023-03-25T18:15:21.205Z,10.95
2023-03-25T18:16:46.537Z,10.85
2023-03-25T18:18:21.192Z,10.92
2023-03-25T18:19:42.880Z,10.99
2023-03-25T18:21:05.657Z,10.97
2023-03-25T18:22:27.660Z,10.96
2023-03-25T18:23:53.699Z,10.87
2023-03-25T18:25:16.491Z,10.93
2023-03-25T18:26:38.829Z,10.94
2023-03-25T18:28:01.625Z,10.75
2023-03-25T18:29:26.490Z,10.64
2023-03-25T18:30:52.689Z,10.66
2023-03-25T18:32:15.570Z,10.66
2023-03-25T18:33:39.842Z,10.89
2023-03-25T18:35:02.209Z,10.87
2023-03-25T18:36:24.744Z,10.81
2023-03-25T18:37:49.230Z,10.76
2023-03-25T18:39:18.040Z,10.70
2023-03-25T18:41:05.325Z,10.86
2023-03-25T18:42:27.813Z,10.66
2023-03-25T18:43:49.951Z,10.68
2023-03-25T18:45:15.207Z,10.64
2023-03-25T18:46:37.992Z,10.81
2023-03-25T18:48:02.976Z,10.86
2023-03-25T18:49:39.039Z,10.71
2023-03-25T18:51:01.973Z,10.91
2023-03-25T18:52:24.628Z,11.01
2023-03-25T18:53:48.987Z,10.92
2023-03-25T18:55:13.516Z,10.89
2023-03-25T18:56:37.800Z,11.08
2023-03-25T18:58:00.680Z,11.09
2023-03-25T18:59:24.072Z,10.86